sensor_id;sensor_type;location;lat;lon;timestamp;temperature;humidity
55064;DHT22;40963;52.168;21.296;2023-07-13T00:02:16;18.90;99.90
55064;DHT22;40963;52.168;21.296;2023-07-13T00:04:42;18.90;99.90
55064;DHT22;40963;52.168;21.296;2023-07-13T00:07:08;18.90;99.90
55064;DHT22;40963;52.168;21.296;2023-07-13T00:09:34;18.80;99.90
55064;DHT22;40963;52.168;21.296;2023-07-13T00:11:59;18.80;99.90
55064;DHT22;40963;52.168;21.296;2023-07-13T00:14:27;18.70;99.90
55064;DHT22;40963;52.168;21.296;2023-07-13T00:16:52;18.70;99.90
55064;DHT22;40963;52.168;21.296;2023-07-13T00:19:18;18.70;99.90
55064;DHT22;40963;52.168;21.296;2023-07-13T00:21:44;18.70;99.90
55064;DHT22;40963;52.168;21.296;2023-07-13T00:24:12;18.70;99.90
55064;DHT22;40963;52.168;21.296;2023-07-13T00:26:39;18.70;99.90
55064;DHT22;40963;52.168;21.296;2023-07-13T00:29:05;18.60;99.90
55064;DHT22;40963;52.168;21.296;2023-07-13T00:31:35;18.60;99.90
55064;DHT22;40963;52.168;21.296;2023-07-13T00:34:01;18.50;99.90
55064;DHT22;40963;52.168;21.296;2023-07-13T00:36:29;18.50;99.90
55064;DHT22;40963;52.168;21.296;2023-07-13T00:38:55;18.50;99.90
55064;DHT22;40963;52.168;21.296;2023-07-13T00:41:20;18.40;99.90
55064;DHT22;40963;52.168;21.296;2023-07-13T00:43:46;18.40;99.90
55064;DHT22;40963;52.168;21.296;2023-07-13T00:46:20;18.40;99.90
55064;DHT22;40963;52.168;21.296;2023-07-13T00:48:48;18.40;99.90
55064;DHT22;40963;52.168;21.296;2023-07-13T00:51:17;18.30;99.90
55064;DHT22;40963;52.168;21.296;2023-07-13T00:53:44;18.30;99.90
55064;DHT22;40963;52.168;21.296;2023-07-13T00:56:10;18.30;99.90
55064;DHT22;40963;52.168;21.296;2023-07-13T00:58:36;18.30;99.90
55064;DHT22;40963;52.168;21.296;2023-07-13T01:01:02;18.30;99.90
55064;DHT22;40963;52.168;21.296;2023-07-13T01:03:29;18.30;99.90
55064;DHT22;40963;52.168;21.296;2023-07-13T01:05:55;18.30;99.90
55064;DHT22;40963;52.168;21.296;2023-07-13T01:08:21;18.20;99.90
55064;DHT22;40963;52.168;21.296;2023-07-13T01:10:55;18.20;99.90
55064;DHT22;40963;52.168;21.296;2023-07-13T01:13:21;18.20;99.90
55064;DHT22;40963;52.168;21.296;2023-07-13T01:15:49;18.20;99.90
55064;DHT22;40963;52.168;21.296;2023-07-13T01:18:22;18.20;99.90
55064;DHT22;40963;52.168;21.296;2023-07-13T01:21:01;18.10;99.90
55064;DHT22;40963;52.168;21.296;2023-07-13T01:23:28;18.10;99.90
55064;DHT22;40963;52.168;21.296;2023-07-13T01:25:54;18.10;99.90
55064;DHT22;40963;52.168;21.296;2023-07-13T01:28:21;18.10;99.90
55064;DHT22;40963;52.168;21.296;2023-07-13T01:30:47;18.10;99.90
55064;DHT22;40963;52.168;21.296;2023-07-13T01:33:15;18.10;99.90
55064;DHT22;40963;52.168;21.296;2023-07-13T01:35:42;18.10;99.90
55064;DHT22;40963;52.168;21.296;2023-07-13T01:38:09;18.10;99.90
55064;DHT22;40963;52.168;21.296;2023-07-13T01:40:36;18.10;99.90
55064;DHT22;40963;52.168;21.296;2023-07-13T01:43:02;18.10;99.90
55064;DHT22;40963;52.168;21.296;2023-07-13T01:45:28;18.00;99.90
55064;DHT22;40963;52.168;21.296;2023-07-13T01:47:53;18.00;99.90
55064;DHT22;40963;52.168;21.296;2023-07-13T01:50:19;18.00;99.90
55064;DHT22;40963;52.168;21.296;2023-07-13T01:52:45;18.00;99.90
55064;DHT22;40963;52.168;21.296;2023-07-13T01:55:11;18.00;99.90
55064;DHT22;40963;52.168;21.296;2023-07-13T01:57:36;18.00;99.90
55064;DHT22;40963;52.168;21.296;2023-07-13T02:00:04;18.00;99.90
55064;DHT22;40963;52.168;21.296;2023-07-13T02:02:30;17.90;99.90
55064;DHT22;40963;52.168;21.296;2023-07-13T02:04:56;17.90;99.90
55064;DHT22;40963;52.168;21.296;2023-07-13T02:07:22;17.90;99.90
55064;DHT22;40963;52.168;21.296;2023-07-13T02:09:47;17.90;99.90
55064;DHT22;40963;52.168;21.296;2023-07-13T02:12:13;17.90;99.90
55064;DHT22;40963;52.168;21.296;2023-07-13T02:14:39;17.90;99.90
55064;DHT22;40963;52.168;21.296;2023-07-13T02:17:05;17.90;99.90
55064;DHT22;40963;52.168;21.296;2023-07-13T02:19:31;17.80;99.90
55064;DHT22;40963;52.168;21.296;2023-07-13T02:21:56;17.80;99.90
55064;DHT22;40963;52.168;21.296;2023-07-13T02:24:22;17.80;99.90
55064;DHT22;40963;52.168;21.296;2023-07-13T02:26:48;17.80;99.90
55064;DHT22;40963;52.168;21.296;2023-07-13T02:29:14;17.80;99.90
55064;DHT22;40963;52.168;21.296;2023-07-13T02:31:39;17.80;99.90
55064;DHT22;40963;52.168;21.296;2023-07-13T02:34:05;17.70;99.90
55064;DHT22;40963;52.168;21.296;2023-07-13T02:36:31;17.70;99.90
55064;DHT22;40963;52.168;21.296;2023-07-13T02:39:00;17.70;99.90
55064;DHT22;40963;52.168;21.296;2023-07-13T02:41:26;17.70;99.90
55064;DHT22;40963;52.168;21.296;2023-07-13T02:43:52;17.70;99.90
55064;DHT22;40963;52.168;21.296;2023-07-13T02:46:17;17.70;99.90
55064;DHT22;40963;52.168;21.296;2023-07-13T02:48:45;17.70;99.90
55064;DHT22;40963;52.168;21.296;2023-07-13T02:51:11;17.70;99.90
55064;DHT22;40963;52.168;21.296;2023-07-13T02:53:37;17.70;99.90
55064;DHT22;40963;52.168;21.296;2023-07-13T02:56:03;17.60;99.90
55064;DHT22;40963;52.168;21.296;2023-07-13T02:58:30;17.60;99.90
55064;DHT22;40963;52.168;21.296;2023-07-13T03:00:56;17.60;99.90
55064;DHT22;40963;52.168;21.296;2023-07-13T03:03:23;17.60;99.90
55064;DHT22;40963;52.168;21.296;2023-07-13T03:05:58;17.60;99.90
55064;DHT22;40963;52.168;21.296;2023-07-13T03:08:25;17.60;99.90
55064;DHT22;40963;52.168;21.296;2023-07-13T03:11:21;17.50;99.90
55064;DHT22;40963;52.168;21.296;2023-07-13T03:13:46;17.50;99.90
55064;DHT22;40963;52.168;21.296;2023-07-13T03:16:13;17.50;99.90
55064;DHT22;40963;52.168;21.296;2023-07-13T03:18:41;17.50;99.90
55064;DHT22;40963;52.168;21.296;2023-07-13T03:21:07;17.50;99.90
55064;DHT22;40963;52.168;21.296;2023-07-13T03:23:33;17.50;99.90
55064;DHT22;40963;52.168;21.296;2023-07-13T03:26:17;17.50;99.90
55064;DHT22;40963;52.168;21.296;2023-07-13T03:28:43;17.50;99.90
55064;DHT22;40963;52.168;21.296;2023-07-13T03:31:13;17.40;99.90
55064;DHT22;40963;52.168;21.296;2023-07-13T03:33:39;17.50;99.90
55064;DHT22;40963;52.168;21.296;2023-07-13T03:36:06;17.40;99.90
55064;DHT22;40963;52.168;21.296;2023-07-13T03:38:32;17.40;99.90
55064;DHT22;40963;52.168;21.296;2023-07-13T03:40:58;17.40;99.90
55064;DHT22;40963;52.168;21.296;2023-07-13T03:43:23;17.40;99.90
55064;DHT22;40963;52.168;21.296;2023-07-13T03:45:49;17.40;99.90
55064;DHT22;40963;52.168;21.296;2023-07-13T03:48:15;17.40;99.90
55064;DHT22;40963;52.168;21.296;2023-07-13T03:50:41;17.40;99.90
55064;DHT22;40963;52.168;21.296;2023-07-13T03:53:06;17.50;99.90
55064;DHT22;40963;52.168;21.296;2023-07-13T03:55:32;17.50;99.90
55064;DHT22;40963;52.168;21.296;2023-07-13T03:58:00;17.50;99.90
55064;DHT22;40963;52.168;21.296;2023-07-13T04:00:26;17.50;99.90
55064;DHT22;40963;52.168;21.296;2023-07-13T04:02:52;17.50;99.90
55064;DHT22;40963;52.168;21.296;2023-07-13T04:05:18;17.60;99.90
55064;DHT22;40963;52.168;21.296;2023-07-13T04:07:43;17.70;99.90
55064;DHT22;40963;52.168;21.296;2023-07-13T04:10:09;17.70;99.90
55064;DHT22;40963;52.168;21.296;2023-07-13T04:12:35;17.70;99.90
55064;DHT22;40963;52.168;21.296;2023-07-13T04:15:00;17.80;99.90
55064;DHT22;40963;52.168;21.296;2023-07-13T04:17:26;17.80;99.90
55064;DHT22;40963;52.168;21.296;2023-07-13T04:19:52;17.90;99.90
55064;DHT22;40963;52.168;21.296;2023-07-13T04:22:17;17.90;99.90
55064;DHT22;40963;52.168;21.296;2023-07-13T04:24:43;18.00;99.90
55064;DHT22;40963;52.168;21.296;2023-07-13T04:27:09;18.10;99.90
55064;DHT22;40963;52.168;21.296;2023-07-13T04:29:35;18.10;99.90
55064;DHT22;40963;52.168;21.296;2023-07-13T04:32:00;18.20;99.90
55064;DHT22;40963;52.168;21.296;2023-07-13T04:34:26;18.30;99.90
55064;DHT22;40963;52.168;21.296;2023-07-13T04:36:52;18.40;99.90
55064;DHT22;40963;52.168;21.296;2023-07-13T04:39:18;18.50;99.90
55064;DHT22;40963;52.168;21.296;2023-07-13T04:41:44;18.60;99.90
55064;DHT22;40963;52.168;21.296;2023-07-13T04:44:09;18.70;99.90
55064;DHT22;40963;52.168;21.296;2023-07-13T04:46:35;18.80;99.90
55064;DHT22;40963;52.168;21.296;2023-07-13T04:49:00;19.00;99.90
55064;DHT22;40963;52.168;21.296;2023-07-13T04:51:28;19.10;99.90
55064;DHT22;40963;52.168;21.296;2023-07-13T04:53:54;19.30;99.90
55064;DHT22;40963;52.168;21.296;2023-07-13T04:56:20;19.40;99.90
55064;DHT22;40963;52.168;21.296;2023-07-13T04:58:45;19.50;99.90
55064;DHT22;40963;52.168;21.296;2023-07-13T05:01:11;19.50;99.90
55064;DHT22;40963;52.168;21.296;2023-07-13T05:03:37;19.60;99.90
55064;DHT22;40963;52.168;21.296;2023-07-13T05:06:04;19.70;99.90
55064;DHT22;40963;52.168;21.296;2023-07-13T05:08:30;19.80;99.90
55064;DHT22;40963;52.168;21.296;2023-07-13T05:10:56;19.80;99.90
55064;DHT22;40963;52.168;21.296;2023-07-13T05:13:22;19.90;99.90
55064;DHT22;40963;52.168;21.296;2023-07-13T05:15:59;20.00;99.90
55064;DHT22;40963;52.168;21.296;2023-07-13T05:18:25;20.00;99.90
55064;DHT22;40963;52.168;21.296;2023-07-13T05:21:01;20.10;99.90
55064;DHT22;40963;52.168;21.296;2023-07-13T05:23:27;20.10;99.90
55064;DHT22;40963;52.168;21.296;2023-07-13T05:25:53;20.20;99.90
55064;DHT22;40963;52.168;21.296;2023-07-13T05:28:19;20.20;99.90
55064;DHT22;40963;52.168;21.296;2023-07-13T05:30:49;20.20;99.90
55064;DHT22;40963;52.168;21.296;2023-07-13T05:33:15;20.20;99.90
55064;DHT22;40963;52.168;21.296;2023-07-13T05:35:40;20.30;99.90
55064;DHT22;40963;52.168;21.296;2023-07-13T05:38:06;20.30;99.90
55064;DHT22;40963;52.168;21.296;2023-07-13T05:40:32;20.30;99.90
55064;DHT22;40963;52.168;21.296;2023-07-13T05:42:57;20.30;99.90
55064;DHT22;40963;52.168;21.296;2023-07-13T05:45:23;20.40;99.90
55064;DHT22;40963;52.168;21.296;2023-07-13T05:47:49;20.40;99.90
55064;DHT22;40963;52.168;21.296;2023-07-13T05:50:14;20.40;99.90
55064;DHT22;40963;52.168;21.296;2023-07-13T05:52:40;20.40;99.90
55064;DHT22;40963;52.168;21.296;2023-07-13T05:55:06;20.50;99.90
55064;DHT22;40963;52.168;21.296;2023-07-13T05:57:31;20.50;99.90
55064;DHT22;40963;52.168;21.296;2023-07-13T05:59:57;20.60;99.90
55064;DHT22;40963;52.168;21.296;2023-07-13T06:02:23;20.60;99.90
55064;DHT22;40963;52.168;21.296;2023-07-13T06:04:48;20.60;99.90
55064;DHT22;40963;52.168;21.296;2023-07-13T06:07:14;20.70;99.90
55064;DHT22;40963;52.168;21.296;2023-07-13T06:09:40;20.70;99.90
55064;DHT22;40963;52.168;21.296;2023-07-13T06:12:06;20.70;99.90
55064;DHT22;40963;52.168;21.296;2023-07-13T06:14:31;20.80;99.90
55064;DHT22;40963;52.168;21.296;2023-07-13T06:16:57;20.80;99.90
55064;DHT22;40963;52.168;21.296;2023-07-13T06:19:22;20.90;99.90
55064;DHT22;40963;52.168;21.296;2023-07-13T06:21:48;20.90;99.90
55064;DHT22;40963;52.168;21.296;2023-07-13T06:24:14;21.00;99.90
55064;DHT22;40963;52.168;21.296;2023-07-13T06:26:39;21.10;99.90
55064;DHT22;40963;52.168;21.296;2023-07-13T06:29:05;21.10;99.90
55064;DHT22;40963;52.168;21.296;2023-07-13T06:31:31;21.20;99.90
55064;DHT22;40963;52.168;21.296;2023-07-13T06:33:56;21.30;99.90
55064;DHT22;40963;52.168;21.296;2023-07-13T06:36:22;21.40;99.90
55064;DHT22;40963;52.168;21.296;2023-07-13T06:38:48;21.50;99.90
55064;DHT22;40963;52.168;21.296;2023-07-13T06:41:14;21.50;99.90
55064;DHT22;40963;52.168;21.296;2023-07-13T06:43:39;21.50;99.90
55064;DHT22;40963;52.168;21.296;2023-07-13T06:46:05;21.60;99.90
55064;DHT22;40963;52.168;21.296;2023-07-13T06:48:31;21.70;99.90
55064;DHT22;40963;52.168;21.296;2023-07-13T06:50:57;21.70;99.90
55064;DHT22;40963;52.168;21.296;2023-07-13T06:53:23;21.80;99.90
55064;DHT22;40963;52.168;21.296;2023-07-13T06:55:49;21.70;99.90
55064;DHT22;40963;52.168;21.296;2023-07-13T06:58:16;21.80;99.90
55064;DHT22;40963;52.168;21.296;2023-07-13T07:00:42;21.90;99.90
55064;DHT22;40963;52.168;21.296;2023-07-13T07:03:08;22.00;99.90
55064;DHT22;40963;52.168;21.296;2023-07-13T07:05:34;22.10;99.90
55064;DHT22;40963;52.168;21.296;2023-07-13T07:07:59;22.20;99.90
55064;DHT22;40963;52.168;21.296;2023-07-13T07:10:25;22.20;99.90
55064;DHT22;40963;52.168;21.296;2023-07-13T07:12:51;22.20;99.90
55064;DHT22;40963;52.168;21.296;2023-07-13T07:15:18;22.10;99.90
55064;DHT22;40963;52.168;21.296;2023-07-13T07:17:43;22.20;99.90
55064;DHT22;40963;52.168;21.296;2023-07-13T07:20:10;22.20;99.90
55064;DHT22;40963;52.168;21.296;2023-07-13T07:22:35;22.30;99.90
55064;DHT22;40963;52.168;21.296;2023-07-13T07:25:01;22.50;99.90
55064;DHT22;40963;52.168;21.296;2023-07-13T07:27:27;22.70;99.90
55064;DHT22;40963;52.168;21.296;2023-07-13T07:29:52;22.80;99.90
55064;DHT22;40963;52.168;21.296;2023-07-13T07:32:19;22.90;99.90
55064;DHT22;40963;52.168;21.296;2023-07-13T07:34:45;23.00;99.90
55064;DHT22;40963;52.168;21.296;2023-07-13T07:37:12;23.10;99.90
55064;DHT22;40963;52.168;21.296;2023-07-13T07:39:38;23.20;99.90
55064;DHT22;40963;52.168;21.296;2023-07-13T07:42:04;23.40;99.90
55064;DHT22;40963;52.168;21.296;2023-07-13T07:44:33;23.60;99.90
55064;DHT22;40963;52.168;21.296;2023-07-13T07:46:59;23.70;99.90
55064;DHT22;40963;52.168;21.296;2023-07-13T07:49:25;23.80;99.90
55064;DHT22;40963;52.168;21.296;2023-07-13T07:51:51;23.90;99.90
55064;DHT22;40963;52.168;21.296;2023-07-13T07:54:17;24.10;99.90
55064;DHT22;40963;52.168;21.296;2023-07-13T07:56:43;24.20;99.90
55064;DHT22;40963;52.168;21.296;2023-07-13T07:59:09;24.20;99.90
55064;DHT22;40963;52.168;21.296;2023-07-13T08:01:35;24.30;99.00
55064;DHT22;40963;52.168;21.296;2023-07-13T08:04:00;24.40;98.50
55064;DHT22;40963;52.168;21.296;2023-07-13T08:06:27;24.60;97.90
55064;DHT22;40963;52.168;21.296;2023-07-13T08:08:53;24.70;96.90
55064;DHT22;40963;52.168;21.296;2023-07-13T08:11:21;24.80;95.60
55064;DHT22;40963;52.168;21.296;2023-07-13T08:13:47;24.90;94.60
55064;DHT22;40963;52.168;21.296;2023-07-13T08:16:12;25.00;93.60
55064;DHT22;40963;52.168;21.296;2023-07-13T08:18:38;25.10;92.80
55064;DHT22;40963;52.168;21.296;2023-07-13T08:21:07;25.30;91.80
55064;DHT22;40963;52.168;21.296;2023-07-13T08:23:34;25.40;90.70
55064;DHT22;40963;52.168;21.296;2023-07-13T08:26:01;25.50;89.60
55064;DHT22;40963;52.168;21.296;2023-07-13T08:28:27;25.70;88.70
55064;DHT22;40963;52.168;21.296;2023-07-13T08:30:53;25.80;86.30
55064;DHT22;40963;52.168;21.296;2023-07-13T08:33:21;25.80;83.90
55064;DHT22;40963;52.168;21.296;2023-07-13T08:35:50;25.90;83.40
55064;DHT22;40963;52.168;21.296;2023-07-13T08:38:16;26.00;82.80
55064;DHT22;40963;52.168;21.296;2023-07-13T08:40:42;26.10;81.30
55064;DHT22;40963;52.168;21.296;2023-07-13T08:43:20;26.20;77.10
55064;DHT22;40963;52.168;21.296;2023-07-13T08:48:32;26.30;75.60
55064;DHT22;40963;52.168;21.296;2023-07-13T08:51:22;26.40;75.00
55064;DHT22;40963;52.168;21.296;2023-07-13T08:53:52;26.40;74.50
55064;DHT22;40963;52.168;21.296;2023-07-13T08:56:25;26.60;74.60
55064;DHT22;40963;52.168;21.296;2023-07-13T08:58:58;26.60;74.10
55064;DHT22;40963;52.168;21.296;2023-07-13T09:01:32;26.70;73.90
55064;DHT22;40963;52.168;21.296;2023-07-13T09:04:08;26.70;73.20
55064;DHT22;40963;52.168;21.296;2023-07-13T09:07:04;26.70;72.90
55064;DHT22;40963;52.168;21.296;2023-07-13T09:09:36;26.70;71.40
55064;DHT22;40963;52.168;21.296;2023-07-13T09:12:25;26.70;71.20
55064;DHT22;40963;52.168;21.296;2023-07-13T09:14:54;26.70;71.90
55064;DHT22;40963;52.168;21.296;2023-07-13T09:17:26;26.50;72.90
55064;DHT22;40963;52.168;21.296;2023-07-13T09:20:00;26.30;73.90
55064;DHT22;40963;52.168;21.296;2023-07-13T09:22:32;26.20;74.50
55064;DHT22;40963;52.168;21.296;2023-07-13T09:25:11;26.10;74.80
55064;DHT22;40963;52.168;21.296;2023-07-13T09:27:46;26.00;75.20
55064;DHT22;40963;52.168;21.296;2023-07-13T09:32:45;25.90;78.10
55064;DHT22;40963;52.168;21.296;2023-07-13T09:35:16;26.00;80.70
55064;DHT22;40963;52.168;21.296;2023-07-13T09:37:44;25.90;81.40
55064;DHT22;40963;52.168;21.296;2023-07-13T09:40:17;25.80;83.10
55064;DHT22;40963;52.168;21.296;2023-07-13T09:42:44;25.80;84.80
55064;DHT22;40963;52.168;21.296;2023-07-13T09:45:10;25.80;85.80
55064;DHT22;40963;52.168;21.296;2023-07-13T09:47:39;25.80;86.60
55064;DHT22;40963;52.168;21.296;2023-07-13T09:50:15;25.80;86.00
55064;DHT22;40963;52.168;21.296;2023-07-13T09:52:49;25.70;85.50
55064;DHT22;40963;52.168;21.296;2023-07-13T09:55:34;25.70;87.10
55064;DHT22;40963;52.168;21.296;2023-07-13T09:58:09;25.70;88.30
55064;DHT22;40963;52.168;21.296;2023-07-13T10:00:36;25.60;88.40
55064;DHT22;40963;52.168;21.296;2023-07-13T10:03:17;25.50;88.80
55064;DHT22;40963;52.168;21.296;2023-07-13T10:05:45;25.40;90.00
55064;DHT22;40963;52.168;21.296;2023-07-13T10:08:41;25.30;90.30
55064;DHT22;40963;52.168;21.296;2023-07-13T10:11:18;25.20;87.30
55064;DHT22;40963;52.168;21.296;2023-07-13T10:14:09;24.80;87.70
55064;DHT22;40963;52.168;21.296;2023-07-13T10:16:36;24.40;88.00
55064;DHT22;40963;52.168;21.296;2023-07-13T10:19:09;24.10;90.30
55064;DHT22;40963;52.168;21.296;2023-07-13T10:21:57;23.80;91.40
55064;DHT22;40963;52.168;21.296;2023-07-13T10:24:26;23.50;91.40
55064;DHT22;40963;52.168;21.296;2023-07-13T10:26:56;23.30;91.90
55064;DHT22;40963;52.168;21.296;2023-07-13T10:29:26;23.20;92.10
55064;DHT22;40963;52.168;21.296;2023-07-13T10:31:53;23.00;92.30
55064;DHT22;40963;52.168;21.296;2023-07-13T10:34:18;22.90;92.70
55064;DHT22;40963;52.168;21.296;2023-07-13T10:36:46;22.80;93.40
55064;DHT22;40963;52.168;21.296;2023-07-13T10:39:27;22.70;94.10
55064;DHT22;40963;52.168;21.296;2023-07-13T10:41:57;22.70;94.30
55064;DHT22;40963;52.168;21.296;2023-07-13T10:44:27;22.80;94.30
55064;DHT22;40963;52.168;21.296;2023-07-13T10:46:56;22.80;94.40
55064;DHT22;40963;52.168;21.296;2023-07-13T10:49:27;22.80;94.60
55064;DHT22;40963;52.168;21.296;2023-07-13T10:51:54;22.80;94.60
55064;DHT22;40963;52.168;21.296;2023-07-13T10:54:22;22.80;94.60
55064;DHT22;40963;52.168;21.296;2023-07-13T10:57:06;22.70;94.40
55064;DHT22;40963;52.168;21.296;2023-07-13T10:59:34;22.70;94.60
55064;DHT22;40963;52.168;21.296;2023-07-13T11:02:11;22.70;95.10
55064;DHT22;40963;52.168;21.296;2023-07-13T11:04:42;22.60;95.40
55064;DHT22;40963;52.168;21.296;2023-07-13T11:07:24;22.60;95.80
55064;DHT22;40963;52.168;21.296;2023-07-13T11:09:52;22.60;96.30
55064;DHT22;40963;52.168;21.296;2023-07-13T11:20:36;22.50;99.80
55064;DHT22;40963;52.168;21.296;2023-07-13T11:23:09;22.50;99.90
55064;DHT22;40963;52.168;21.296;2023-07-13T11:25:43;22.40;99.90
55064;DHT22;40963;52.168;21.296;2023-07-13T11:30:48;22.10;99.90
55064;DHT22;40963;52.168;21.296;2023-07-13T11:33:20;21.90;99.90
55064;DHT22;40963;52.168;21.296;2023-07-13T11:40:58;21.30;99.90
55064;DHT22;40963;52.168;21.296;2023-07-13T11:43:28;21.00;99.90
55064;DHT22;40963;52.168;21.296;2023-07-13T11:45:54;20.80;99.90
55064;DHT22;40963;52.168;21.296;2023-07-13T11:48:29;20.60;99.90
55064;DHT22;40963;52.168;21.296;2023-07-13T11:51:04;20.30;99.90
55064;DHT22;40963;52.168;21.296;2023-07-13T11:53:39;20.10;99.90
55064;DHT22;40963;52.168;21.296;2023-07-13T11:56:05;20.00;99.90
55064;DHT22;40963;52.168;21.296;2023-07-13T11:58:32;19.80;99.90
55064;DHT22;40963;52.168;21.296;2023-07-13T12:01:00;19.70;99.90
55064;DHT22;40963;52.168;21.296;2023-07-13T12:03:30;19.50;99.90
55064;DHT22;40963;52.168;21.296;2023-07-13T12:06:02;19.40;99.90
55064;DHT22;40963;52.168;21.296;2023-07-13T12:08:29;19.30;99.90
55064;DHT22;40963;52.168;21.296;2023-07-13T12:11:04;19.20;99.90
55064;DHT22;40963;52.168;21.296;2023-07-13T12:13:37;19.20;99.90
55064;DHT22;40963;52.168;21.296;2023-07-13T12:16:15;19.10;99.90
55064;DHT22;40963;52.168;21.296;2023-07-13T12:18:43;19.10;99.90
55064;DHT22;40963;52.168;21.296;2023-07-13T12:21:13;19.10;99.90
55064;DHT22;40963;52.168;21.296;2023-07-13T12:23:39;19.10;99.90
55064;DHT22;40963;52.168;21.296;2023-07-13T12:26:09;19.00;99.90
55064;DHT22;40963;52.168;21.296;2023-07-13T12:31:37;18.90;99.90
55064;DHT22;40963;52.168;21.296;2023-07-13T12:34:13;18.80;99.90
55064;DHT22;40963;52.168;21.296;2023-07-13T12:36:51;18.80;99.90
55064;DHT22;40963;52.168;21.296;2023-07-13T12:41:52;18.80;99.90
55064;DHT22;40963;52.168;21.296;2023-07-13T12:44:27;18.80;99.90
55064;DHT22;40963;52.168;21.296;2023-07-13T12:46:57;18.80;99.90
55064;DHT22;40963;52.168;21.296;2023-07-13T12:49:26;18.80;99.90
55064;DHT22;40963;52.168;21.296;2023-07-13T12:51:57;18.80;99.90
55064;DHT22;40963;52.168;21.296;2023-07-13T12:54:24;18.80;99.90
55064;DHT22;40963;52.168;21.296;2023-07-13T12:56:52;18.80;99.90
55064;DHT22;40963;52.168;21.296;2023-07-13T12:59:21;18.80;99.90
55064;DHT22;40963;52.168;21.296;2023-07-13T13:01:48;18.80;99.90
55064;DHT22;40963;52.168;21.296;2023-07-13T13:04:15;18.80;99.90
55064;DHT22;40963;52.168;21.296;2023-07-13T13:06:41;18.80;99.90
55064;DHT22;40963;52.168;21.296;2023-07-13T13:09:13;18.80;99.90
55064;DHT22;40963;52.168;21.296;2023-07-13T13:11:40;18.80;99.90
55064;DHT22;40963;52.168;21.296;2023-07-13T13:14:06;18.80;99.90
55064;DHT22;40963;52.168;21.296;2023-07-13T13:16:35;18.80;99.90
55064;DHT22;40963;52.168;21.296;2023-07-13T13:19:13;18.70;99.90
55064;DHT22;40963;52.168;21.296;2023-07-13T13:21:39;18.70;99.90
55064;DHT22;40963;52.168;21.296;2023-07-13T13:24:17;18.70;99.90
55064;DHT22;40963;52.168;21.296;2023-07-13T13:26:44;18.70;99.90
55064;DHT22;40963;52.168;21.296;2023-07-13T13:29:22;18.70;99.90
55064;DHT22;40963;52.168;21.296;2023-07-13T13:31:50;18.70;99.90
55064;DHT22;40963;52.168;21.296;2023-07-13T13:34:17;18.70;99.90
55064;DHT22;40963;52.168;21.296;2023-07-13T13:36:43;18.70;99.90
55064;DHT22;40963;52.168;21.296;2023-07-13T13:41:46;18.80;99.90
55064;DHT22;40963;52.168;21.296;2023-07-13T13:44:14;18.80;99.90
55064;DHT22;40963;52.168;21.296;2023-07-13T13:46:40;18.80;99.90
55064;DHT22;40963;52.168;21.296;2023-07-13T13:49:15;18.80;99.90
55064;DHT22;40963;52.168;21.296;2023-07-13T13:51:41;18.80;99.90
55064;DHT22;40963;52.168;21.296;2023-07-13T13:54:13;18.70;99.90
55064;DHT22;40963;52.168;21.296;2023-07-13T13:56:42;18.70;99.90
55064;DHT22;40963;52.168;21.296;2023-07-13T13:59:08;18.80;99.90
55064;DHT22;40963;52.168;21.296;2023-07-13T14:01:34;18.80;99.90
55064;DHT22;40963;52.168;21.296;2023-07-13T14:04:00;18.80;99.90
55064;DHT22;40963;52.168;21.296;2023-07-13T14:06:26;18.90;99.90
55064;DHT22;40963;52.168;21.296;2023-07-13T14:08:52;19.00;99.90
55064;DHT22;40963;52.168;21.296;2023-07-13T14:11:20;19.00;99.90
55064;DHT22;40963;52.168;21.296;2023-07-13T14:14:05;18.90;99.90
55064;DHT22;40963;52.168;21.296;2023-07-13T14:16:31;19.00;99.90
55064;DHT22;40963;52.168;21.296;2023-07-13T14:18:58;19.10;99.90
55064;DHT22;40963;52.168;21.296;2023-07-13T14:21:26;19.10;99.90
55064;DHT22;40963;52.168;21.296;2023-07-13T14:23:52;19.10;99.90
55064;DHT22;40963;52.168;21.296;2023-07-13T14:26:23;19.20;99.90
55064;DHT22;40963;52.168;21.296;2023-07-13T14:28:52;19.20;99.90
55064;DHT22;40963;52.168;21.296;2023-07-13T14:31:19;19.20;99.90
55064;DHT22;40963;52.168;21.296;2023-07-13T14:33:45;19.20;99.90
55064;DHT22;40963;52.168;21.296;2023-07-13T14:36:26;19.30;99.90
55064;DHT22;40963;52.168;21.296;2023-07-13T14:38:52;19.30;99.90
55064;DHT22;40963;52.168;21.296;2023-07-13T14:41:19;19.20;99.90
55064;DHT22;40963;52.168;21.296;2023-07-13T14:43:44;19.30;99.90
55064;DHT22;40963;52.168;21.296;2023-07-13T14:46:31;19.20;99.90
55064;DHT22;40963;52.168;21.296;2023-07-13T14:49:02;19.20;99.90
55064;DHT22;40963;52.168;21.296;2023-07-13T14:51:29;19.20;99.90
55064;DHT22;40963;52.168;21.296;2023-07-13T14:53:55;19.20;99.90
55064;DHT22;40963;52.168;21.296;2023-07-13T14:56:20;19.20;99.90
55064;DHT22;40963;52.168;21.296;2023-07-13T14:58:46;19.10;99.90
55064;DHT22;40963;52.168;21.296;2023-07-13T15:01:14;19.10;99.90
55064;DHT22;40963;52.168;21.296;2023-07-13T15:03:45;19.10;99.90
55064;DHT22;40963;52.168;21.296;2023-07-13T15:06:12;19.10;99.90
55064;DHT22;40963;52.168;21.296;2023-07-13T15:08:39;19.00;99.90
55064;DHT22;40963;52.168;21.296;2023-07-13T15:11:07;19.00;99.90
55064;DHT22;40963;52.168;21.296;2023-07-13T15:13:33;19.00;99.90
55064;DHT22;40963;52.168;21.296;2023-07-13T15:16:00;19.00;99.90
55064;DHT22;40963;52.168;21.296;2023-07-13T15:18:26;19.00;99.90
55064;DHT22;40963;52.168;21.296;2023-07-13T15:20:53;19.00;99.90
55064;DHT22;40963;52.168;21.296;2023-07-13T15:23:21;19.00;99.90
55064;DHT22;40963;52.168;21.296;2023-07-13T15:25:48;19.00;99.90
55064;DHT22;40963;52.168;21.296;2023-07-13T15:28:14;19.10;99.90
55064;DHT22;40963;52.168;21.296;2023-07-13T15:30:43;19.10;99.90
55064;DHT22;40963;52.168;21.296;2023-07-13T15:33:25;19.10;99.90
55064;DHT22;40963;52.168;21.296;2023-07-13T15:35:52;19.00;99.90
55064;DHT22;40963;52.168;21.296;2023-07-13T15:38:28;19.00;99.90
55064;DHT22;40963;52.168;21.296;2023-07-13T15:40:55;19.00;99.90
55064;DHT22;40963;52.168;21.296;2023-07-13T15:43:22;19.00;99.90
55064;DHT22;40963;52.168;21.296;2023-07-13T15:45:48;19.00;99.90
55064;DHT22;40963;52.168;21.296;2023-07-13T15:48:25;19.00;99.90
55064;DHT22;40963;52.168;21.296;2023-07-13T15:50:53;19.00;99.90
55064;DHT22;40963;52.168;21.296;2023-07-13T15:53:31;19.00;99.90